createdAt,value
2018-07-14T20:01:48.567Z,43.30
2018-07-14T20:04:16.929Z,45.60
2018-07-14T20:06:45.225Z,48.60
2018-07-14T20:09:13.714Z,49.30
2018-07-14T20:11:42.185Z,50.60
2018-07-14T20:14:10.595Z,49.60
2018-07-14T20:16:38.957Z,52.00
2018-07-14T20:19:07.436Z,50.90
2018-07-14T20:21:36.012Z,53.20
2018-07-14T20:24:04.574Z,54.30
2018-07-14T20:26:33.048Z,55.80
2018-07-14T20:29:07.217Z,55.50
2018-07-14T20:31:35.587Z,56.50
2018-07-14T20:34:03.936Z,56.00
2018-07-14T20:36:32.227Z,56.20
2018-07-14T20:39:00.726Z,56.60
2018-07-14T20:41:29.245Z,57.50
2018-07-14T20:43:57.453Z,57.80
2018-07-14T20:46:26.032Z,57.80
2018-07-14T20:48:54.338Z,56.50
2018-07-14T20:51:22.790Z,56.50
2018-07-14T20:53:51.301Z,56.60
2018-07-14T20:56:19.709Z,56.80
2018-07-14T20:58:48.051Z,57.40
2018-07-14T21:01:16.421Z,58.10
2018-07-14T21:03:44.792Z,58.20
2018-07-14T21:06:13.132Z,59.40
2018-07-14T21:11:09.631Z,59.70
2018-07-14T21:13:38.137Z,60.00
2018-07-14T21:16:06.472Z,60.20
2018-07-14T21:18:34.784Z,60.10
2018-07-14T21:21:03.297Z,60.30
2018-07-14T21:23:31.626Z,61.10
2018-07-14T21:26:00.038Z,61.70
2018-07-14T21:28:29.599Z,62.60
2018-07-14T21:30:57.888Z,62.90
2018-07-14T21:33:26.432Z,63.40
2018-07-14T21:35:54.826Z,64.10
2018-07-14T21:38:23.268Z,64.20
2018-07-14T21:40:51.961Z,64.30
2018-07-14T21:43:20.403Z,64.30
2018-07-14T21:45:48.924Z,64.60
2018-07-14T21:48:17.264Z,65.40
2018-07-14T21:50:46.021Z,65.40
2018-07-14T21:53:14.571Z,65.80
2018-07-14T21:55:42.890Z,66.10
2018-07-14T21:58:11.188Z,66.10
2018-07-14T22:00:45.125Z,66.40
2018-07-14T22:03:14.327Z,66.60
2018-07-14T22:05:42.741Z,66.60
2018-07-14T22:08:11.708Z,66.80
2018-07-14T22:10:40.312Z,67.10
2018-07-14T22:13:08.767Z,67.80
2018-07-14T22:15:37.113Z,67.60
2018-07-14T22:18:05.623Z,67.40
2018-07-14T22:20:34.085Z,67.50
2018-07-14T22:23:02.666Z,67.90
2018-07-14T22:25:31.132Z,68.30
2018-07-14T22:27:59.668Z,68.00
2018-07-14T22:30:28.025Z,67.80
2018-07-14T22:32:56.991Z,67.90
2018-07-14T22:35:25.403Z,68.40
2018-07-14T22:37:53.864Z,68.70
2018-07-14T22:40:22.316Z,68.30
2018-07-14T22:42:50.610Z,68.40
2018-07-14T22:45:19.081Z,67.60
2018-07-14T22:50:15.840Z,68.80
2018-07-14T22:52:44.532Z,69.10
2018-07-14T22:55:13.035Z,69.20
2018-07-14T22:57:41.473Z,69.60
2018-07-14T23:00:10.889Z,70.10
2018-07-14T23:02:39.275Z,70.20
2018-07-14T23:05:07.874Z,69.80
2018-07-14T23:07:36.270Z,70.50
2018-07-14T23:10:04.867Z,70.80
2018-07-14T23:12:33.235Z,71.30
2018-07-14T23:15:01.728Z,71.10
2018-07-14T23:17:30.172Z,71.20
2018-07-14T23:22:26.798Z,71.40
2018-07-14T23:24:55.197Z,71.30
2018-07-14T23:27:23.809Z,71.70
2018-07-14T23:29:52.285Z,71.50
2018-07-14T23:32:20.759Z,70.90
2018-07-14T23:34:49.237Z,72.30
2018-07-14T23:37:17.692Z,73.10
2018-07-14T23:39:46.004Z,72.20
2018-07-14T23:42:14.566Z,72.70
2018-07-14T23:44:43.019Z,72.90
2018-07-14T23:47:11.427Z,72.50
2018-07-14T23:49:39.816Z,72.80
2018-07-14T23:52:09.278Z,72.50
2018-07-14T23:54:37.703Z,72.20
2018-07-14T23:57:06.511Z,73.10
2018-07-14T23:59:35.535Z,73.10
